Time;durP1;ratioP1;P1;durP2;ratioP2;P2;SDS_P1;SDS_P2;PMS_P1;PMS_P2;Temp;Humidity;BMP_temperature;BMP_pressure;BME280_temperature;BME280_humidity;BME280_pressure;Samples;Min_cycle;Max_cycle;Signal;HPM_P1;HPM_P2
2021/04/29 00:01:33;;;;;;;;;;;11.50;99.90;;;;;;5030853;28;19940;-77
2021/04/29 00:03:58;;;;;;;;;;;11.60;99.90;;;;;;5032185;28;19906;-77
2021/04/29 00:06:24;;;;;;;;;;;11.60;99.90;;;;;;5030658;28;20031;-77
2021/04/29 00:08:50;;;;;;;;;;;11.60;99.90;;;;;;5032124;28;19909;-77
2021/04/29 00:11:15;;;;;;;;;;;11.70;99.90;;;;;;5030852;28;20303;-77
2021/04/29 00:13:41;;;;;;;;;;;11.80;99.90;;;;;;5030756;28;20372;-77
2021/04/29 00:16:06;;;;;;;;;;;11.80;99.90;;;;;;5031925;28;20363;-77
2021/04/29 00:18:32;;;;;;;;;;;11.70;99.90;;;;;;5031194;28;19975;-76
2021/04/29 00:20:59;;;;;;;;;;;11.70;99.90;;;;;;5030986;28;20310;-77
2021/04/29 00:23:25;;;;;;;;;;;11.70;99.90;;;;;;5030628;28;19940;-77
2021/04/29 00:25:50;;;;;;;;;;;11.70;99.90;;;;;;5031707;28;19905;-77
2021/04/29 00:28:16;;;;;;;;;;;11.70;99.90;;;;;;5032141;28;19967;-76
2021/04/29 00:30:42;;;;;;;;;;;11.70;99.90;;;;;;5031377;28;20011;-77
2021/04/29 00:33:07;;;;;;;;;;;11.70;99.90;;;;;;5034447;28;19913;-76
2021/04/29 00:35:32;;;;;;;;;;;11.70;99.90;;;;;;5035619;28;19931;-76
2021/04/29 00:37:58;;;;;;;;;;;11.70;99.90;;;;;;5034406;28;20352;-77
2021/04/29 00:40:23;;;;;;;;;;;11.70;99.90;;;;;;5034456;28;19931;-77
2021/04/29 00:42:49;;;;;;;;;;;11.70;99.90;;;;;;5035587;28;19905;-76
2021/04/29 00:45:14;;;;;;;;;;;11.70;99.90;;;;;;5034118;28;19912;-77
2021/04/29 00:47:40;;;;;;;;;;;11.60;99.90;;;;;;5035332;28;19959;-77
2021/04/29 00:50:07;;;;;;;;;;;11.70;99.90;;;;;;5035332;28;19909;-76
2021/04/29 00:52:32;;;;;;;;;;;11.70;99.90;;;;;;5035142;28;19912;-77
2021/04/29 00:54:58;;;;;;;;;;;11.70;99.90;;;;;;5033569;28;19905;-77
2021/04/29 00:57:25;;;;;;;;;;;11.60;99.90;;;;;;5035223;28;19905;-76
2021/04/29 00:59:54;;;;;;;;;;;11.60;99.90;;;;;;5035228;28;20350;-77
2021/04/29 01:02:20;;;;;;;;;;;11.70;99.90;;;;;;5033942;28;19905;-77
2021/04/29 01:04:51;;;;;;;;;;;11.70;99.90;;;;;;5034883;28;19905;-76
2021/04/29 01:07:17;;;;;;;;;;;11.80;99.90;;;;;;5034802;28;19913;-77
2021/04/29 01:09:45;;;;;;;;;;;11.80;99.90;;;;;;5034939;28;19916;-77
2021/04/29 01:12:18;;;;;;;;;;;11.80;99.90;;;;;;5035092;28;19912;-77
2021/04/29 01:14:44;;;;;;;;;;;11.80;99.90;;;;;;5034746;28;19933;-76
2021/04/29 01:17:11;;;;;;;;;;;11.80;99.90;;;;;;5033664;28;20027;-77
2021/04/29 01:19:43;;;;;;;;;;;11.60;99.90;;;;;;5034755;28;19992;-77
2021/04/29 01:22:11;;;;;;;;;;;11.60;99.90;;;;;;5034826;28;19906;-77
2021/04/29 01:24:46;;;;;;;;;;;11.60;99.90;;;;;;5034486;28;19905;-77
2021/04/29 01:27:13;;;;;;;;;;;11.50;99.90;;;;;;5034837;28;19963;-77
2021/04/29 01:29:40;;;;;;;;;;;11.50;99.90;;;;;;5033374;28;19960;-77
2021/04/29 01:32:05;;;;;;;;;;;11.50;99.90;;;;;;5034732;28;19905;-77
2021/04/29 01:34:33;;;;;;;;;;;11.60;99.90;;;;;;5034447;28;20253;-77
2021/04/29 01:36:59;;;;;;;;;;;11.50;99.90;;;;;;5033644;28;20410;-77
2021/04/29 01:39:25;;;;;;;;;;;11.60;99.90;;;;;;5034335;28;19944;-77
2021/04/29 01:41:52;;;;;;;;;;;11.50;99.90;;;;;;5034133;28;20245;-77
2021/04/29 01:44:22;;;;;;;;;;;11.60;99.90;;;;;;5034267;28;19909;-77
2021/04/29 01:46:48;;;;;;;;;;;11.50;99.90;;;;;;5034438;28;20319;-77
2021/04/29 01:49:15;;;;;;;;;;;11.50;99.90;;;;;;5033254;28;20287;-77
2021/04/29 01:51:41;;;;;;;;;;;11.50;99.90;;;;;;5034330;28;19928;-78
2021/04/29 01:54:07;;;;;;;;;;;11.40;99.90;;;;;;5034726;28;20386;-78
2021/04/29 01:56:34;;;;;;;;;;;11.40;99.90;;;;;;5036450;28;19959;-78
2021/04/29 01:58:59;;;;;;;;;;;11.40;99.90;;;;;;5035928;28;19905;-77
2021/04/29 02:01:26;;;;;;;;;;;11.40;99.90;;;;;;5034213;28;19905;-77
2021/04/29 02:03:53;;;;;;;;;;;11.50;99.90;;;;;;5033981;28;19905;-77
2021/04/29 02:06:18;;;;;;;;;;;11.50;99.90;;;;;;5032550;28;19963;-77
2021/04/29 02:08:44;;;;;;;;;;;11.40;99.90;;;;;;5033940;28;19909;-77
2021/04/29 02:11:10;;;;;;;;;;;11.40;99.90;;;;;;5033914;28;19913;-76
2021/04/29 02:13:36;;;;;;;;;;;11.40;99.90;;;;;;5032520;28;20394;-76
2021/04/29 02:16:05;;;;;;;;;;;11.40;99.90;;;;;;5033608;28;19912;-77
2021/04/29 02:18:30;;;;;;;;;;;11.40;99.90;;;;;;5032655;28;19909;-77
2021/04/29 02:20:56;;;;;;;;;;;11.50;99.90;;;;;;5033723;28;19912;-77
2021/04/29 02:23:23;;;;;;;;;;;11.40;99.90;;;;;;5033631;28;19909;-77
2021/04/29 02:25:52;;;;;;;;;;;11.40;99.90;;;;;;5033489;28;20341;-77
2021/04/29 02:28:18;;;;;;;;;;;11.40;99.90;;;;;;5033613;28;19948;-77
2021/04/29 02:30:43;;;;;;;;;;;11.40;99.90;;;;;;5033453;28;20030;-77
2021/04/29 02:33:09;;;;;;;;;;;11.30;99.90;;;;;;5032177;28;19905;-76
2021/04/29 02:35:35;;;;;;;;;;;11.40;99.90;;;;;;5031902;28;19959;-76
2021/04/29 02:38:01;;;;;;;;;;;11.40;99.90;;;;;;5033976;28;20019;-76
2021/04/29 02:40:27;;;;;;;;;;;11.30;99.90;;;;;;5033377;28;19948;-76
2021/04/29 02:42:52;;;;;;;;;;;11.30;99.90;;;;;;5033424;28;19948;-76
2021/04/29 02:45:18;;;;;;;;;;;11.30;99.90;;;;;;5033039;28;19905;-76
2021/04/29 02:47:44;;;;;;;;;;;11.40;99.90;;;;;;5031945;28;20003;-77
2021/04/29 02:50:15;;;;;;;;;;;11.40;99.90;;;;;;5031790;28;19995;-77
2021/04/29 02:52:43;;;;;;;;;;;11.40;99.90;;;;;;5031588;28;19963;-77
2021/04/29 02:55:09;;;;;;;;;;;11.40;99.90;;;;;;5032459;28;19937;-77
2021/04/29 02:57:35;;;;;;;;;;;11.40;99.90;;;;;;5032896;28;19956;-76
2021/04/29 03:00:00;;;;;;;;;;;11.40;99.90;;;;;;5031999;28;20348;-76
2021/04/29 03:02:26;;;;;;;;;;;11.40;99.90;;;;;;5031704;28;19912;-77
2021/04/29 03:04:51;;;;;;;;;;;11.40;99.90;;;;;;5032508;28;19911;-76
2021/04/29 03:07:17;;;;;;;;;;;;;;;;;;5031448;28;20323;-76
2021/04/29 03:09:43;;;;;;;;;;;;;;;;;;5031625;28;19916;-76
2021/04/29 03:12:09;;;;;;;;;;;;;;;;;;5032748;28;19912;-76
2021/04/29 03:14:35;;;;;;;;;;;;;;;;;;5031600;28;19952;-76
2021/04/29 03:17:01;;;;;;;;;;;;;;;;;;5031318;28;19951;-77
2021/04/29 03:19:26;;;;;;;;;;;;;;;;;;5032653;28;19913;-77
2021/04/29 03:21:52;;;;;;;;;;;;;;;;;;5032633;28;19905;-76
2021/04/29 03:24:18;;;;;;;;;;;;;;;;;;5032475;28;20284;-76
2021/04/29 03:26:45;;;;;;;;;;;;;;;;;;5032424;28;20004;-76
2021/04/29 03:29:11;;;;;;;;;;;;;;;;;;5031138;28;19964;-77
2021/04/29 03:31:37;;;;;;;;;;;;;;;;;;5032574;28;20372;-76
2021/04/29 03:34:03;;;;;;;;;;;;;;;;;;5032183;28;19906;-76
2021/04/29 03:36:29;;;;;;;;;;;;;;;;;;5031091;28;20276;-76
2021/04/29 03:38:55;;;;;;;;;;;;;;;;;;5032350;28;19959;-76
2021/04/29 03:41:21;;;;;;;;;;;;;;;;;;5031223;28;19905;-77
2021/04/29 03:43:47;;;;;;;;;;;;;;;;;;5032138;28;20406;-76
2021/04/29 03:46:12;;;;;;;;;;;;;;;;;;5031020;28;19905;-76
2021/04/29 03:48:38;;;;;;;;;;;;;;;;;;5031959;28;19905;-77
2021/04/29 03:51:04;;;;;;;;;;;;;;;;;;5032349;28;19905;-76
2021/04/29 03:53:30;;;;;;;;;;;;;;;;;;5032280;28;20007;-77
2021/04/29 03:55:57;;;;;;;;;;;;;;;;;;5032197;28;19906;-77
2021/04/29 03:58:23;;;;;;;;;;;;;;;;;;5032153;28;20016;-77
2021/04/29 04:00:49;;;;;;;;;;;;;;;;;;5031127;28;19944;-77
2021/04/29 04:03:15;;;;;;;;;;;;;;;;;;5031918;28;20410;-77
2021/04/29 04:05:40;;;;;;;;;;;;;;;;;;5034565;28;19936;-77
2021/04/29 04:08:06;;;;;;;;;;;;;;;;;;5035031;28;19913;-76
2021/04/29 04:10:32;;;;;;;;;;;;;;;;;;5035393;28;20012;-76
2021/04/29 04:12:58;;;;;;;;;;;;;;;;;;5036161;28;20287;-77
2021/04/29 04:15:24;;;;;;;;;;;;;;;;;;5035886;28;19909;-77
2021/04/29 04:17:50;;;;;;;;;;;;;;;;;;5034716;28;20360;-77
2021/04/29 04:20:16;;;;;;;;;;;;;;;;;;5034652;28;19912;-77
2021/04/29 04:22:41;;;;;;;;;;;;;;;;;;5034809;28;19931;-77
2021/04/29 04:25:07;;;;;;;;;;;;;;;;;;5034062;28;20390;-77
2021/04/29 04:27:33;;;;;;;;;;;;;;;;;;5034658;28;19916;-77
2021/04/29 04:29:59;;;;;;;;;;;;;;;;;;5035605;28;19913;-76
2021/04/29 04:32:25;;;;;;;;;;;;;;;;;;5035660;28;19905;-77
2021/04/29 04:34:51;;;;;;;;;;;;;;;;;;5033879;28;19905;-77
2021/04/29 04:37:17;;;;;;;;;;;;;;;;;;5034501;28;20331;-77
2021/04/29 04:39:42;;;;;;;;;;;;;;;;;;5035650;28;19905;-77
2021/04/29 04:42:08;;;;;;;;;;;;;;;;;;5034543;28;19996;-77
2021/04/29 04:44:34;;;;;;;;;;;;;;;;;;5035219;28;20429;-77
2021/04/29 04:47:00;;;;;;;;;;;;;;;;;;5033352;28;19971;-77
2021/04/29 04:49:26;;;;;;;;;;;;;;;;;;5032870;28;19909;-77
2021/04/29 04:51:52;;;;;;;;;;;;;;;;;;5035825;28;20257;-77
2021/04/29 04:54:20;;;;;;;;;;;;;;;;;;5042634;28;19923;-77
2021/04/29 04:56:46;;;;;;;;;;;;;;;;;;5044292;28;20287;-77
2021/04/29 04:59:12;;;;;;;;;;;;;;;;;;5048467;28;19979;-76
2021/04/29 05:01:38;;;;;;;;;;;;;;;;;;5054394;28;19908;-77
2021/04/29 05:04:04;;;;;;;;;;;;;;;;;;5052957;28;19904;-77
2021/04/29 05:06:30;;;;;;;;;;;;;;;;;;5052548;28;19908;-77
2021/04/29 05:08:55;;;;;;;;;;;;;;;;;;5055443;28;20054;-78
2021/04/29 05:11:21;;;;;;;;;;;;;;;;;;5053838;28;19905;-77
2021/04/29 05:13:47;;;;;;;;;;;;;;;;;;5052408;28;19928;-78
2021/04/29 05:16:13;;;;;;;;;;;;;;;;;;5051314;28;19999;-77
2021/04/29 05:18:39;;;;;;;;;;;;;;;;;;5052411;28;19948;-77
2021/04/29 05:21:05;;;;;;;;;;;;;;;;;;5053396;28;20383;-77
2021/04/29 05:23:31;;;;;;;;;;;;;;;;;;5052322;28;20264;-77
2021/04/29 05:25:57;;;;;;;;;;;;;;;;;;5053422;28;19912;-77
2021/04/29 05:28:23;;;;;;;;;;;;;;;;;;5052478;28;19909;-77
2021/04/29 05:30:48;;;;;;;;;;;;;;;;;;5052056;28;19909;-77
2021/04/29 05:33:14;;;;;;;;;;;;;;;;;;5053476;28;19904;-77
2021/04/29 05:35:40;;;;;;;5.68;3.95;;;;;;;;;;5052955;28;19905;-77
2021/04/29 05:38:06;;;;;;;5.35;3.35;;;;;;;;;;5052866;28;20029;-77
2021/04/29 05:40:32;;;;;;;4.88;3.40;;;;;;;;;;5052929;28;20025;-76
2021/04/29 05:42:58;;;;;;;7.10;3.50;;;;;;;;;;5036483;28;20028;-76
2021/04/29 05:45:24;;;;;;;;;;;;;;;;;;5041993;28;20428;-77
2021/04/29 05:47:50;;;;;;;5.97;4.57;;;;;;;;;;5039873;28;19983;-76
2021/04/29 05:50:16;;;;;;;3.50;3.20;;;;;;;;;;5044152;28;20484;-76
2021/04/29 05:52:42;;;;;;;3.70;3.25;;;;;;;;;;5050031;28;20050;-77
2021/04/29 05:55:08;;;;;;;;;;;;;;;;;;5051412;28;20108;-76
2021/04/29 05:57:34;;;;;;;6.07;3.30;;;;;;;;;;5052360;28;20383;-76
2021/04/29 06:00:00;;;;;;;6.18;3.75;;;;;;;;;;5052340;28;20028;-76
2021/04/29 06:02:26;;;;;;;5.68;3.72;;;;;;;;;;5052248;28;20029;-77
2021/04/29 06:04:52;;;;;;;6.22;3.78;;;;;;;;;;5052127;28;20087;-77
2021/04/29 06:07:18;;;;;;;4.50;3.10;;;11.40;99.90;;;;;;5050816;28;20033;-77
2021/04/29 06:09:44;;;;;;;3.83;2.72;;;;;;;;;;5052260;28;20074;-76
2021/04/29 06:12:10;;;;;;;3.90;3.10;;;;;;;;;;5052529;28;20456;-76
2021/04/29 06:14:36;;;;;;;3.47;2.47;;;18.50;99.90;;;;;;5052283;28;20029;-77
2021/04/29 06:17:02;;;;;;;2.63;2.33;;;;;;;;;;5052106;28;20512;-78
2021/04/29 06:19:28;;;;;;;3.63;2.35;;;;;;;;;;5024743;28;20030;-78
2021/04/29 06:21:54;;;;;;;2.72;2.22;;;;;;;;;;5025211;28;20121;-77
2021/04/29 06:24:20;;;;;;;4.03;2.67;;;20.00;99.90;;;;;;5031560;28;20064;-77
2021/04/29 06:26:46;;;;;;;2.63;2.22;;;15.90;99.90;;;;;;5030464;28;20190;-76
2021/04/29 06:29:11;;;;;;;4.40;2.50;;;15.20;99.90;;;;;;5028595;28;20036;-77
2021/04/29 06:31:39;;;;;;;3.80;2.33;;;14.60;99.90;;;;;;5031950;28;20097;-76
2021/04/29 06:34:05;;;;;;;6.28;2.47;;;14.10;99.90;;;;;;5029690;28;20087;-77
2021/04/29 06:36:31;;;;;;;3.85;2.70;;;13.80;99.90;;;;;;5030841;28;20431;-76
2021/04/29 06:38:57;;;;;;;;;;;13.50;99.90;;;;;;5030654;28;20029;-76
2021/04/29 06:41:22;;;;;;;;;;;13.50;99.90;;;;;;5034090;28;19909;-77
2021/04/29 06:43:48;;;;;;;;;;;13.50;99.90;;;;;;5050366;28;21370;-77
2021/04/29 06:46:13;;;;;;;;;;;13.50;99.90;;;;;;5051814;28;19978;-77
2021/04/29 06:48:40;;;;;;;;;;;13.60;99.90;;;;;;5050574;28;19905;-77
2021/04/29 06:51:06;;;;;;;;;;;13.80;99.90;;;;;;5051370;28;20370;-77
2021/04/29 06:53:31;;;;;;;;;;;14.00;99.90;;;;;;5051408;28;19999;-77
2021/04/29 06:55:57;;;;;;;3.90;2.90;;;14.10;99.90;;;;;;5049939;28;19917;-77
2021/04/29 06:58:23;;;;;;;3.22;2.88;;;14.20;99.90;;;;;;5049833;28;19908;-77
2021/04/29 07:00:49;;;;;;;5.30;2.97;;;14.70;99.90;;;;;;5050096;28;20025;-77
2021/04/29 07:03:15;;;;;;;;;;;15.10;99.90;;;;;;5050280;28;19955;-78
2021/04/29 07:05:40;;;;;;;3.25;2.90;;;15.50;99.90;;;;;;5051084;28;20425;-77
2021/04/29 07:08:09;;;;;;;3.15;2.53;;;15.70;99.90;;;;;;5049764;28;20119;-77
2021/04/29 07:10:35;;;;;;;4.65;2.63;;;15.80;99.90;;;;;;5049856;28;20025;-76
2021/04/29 07:13:01;;;;;;;5.70;2.90;;;15.90;99.90;;;;;;5051152;28;20066;-77
2021/04/29 07:15:26;;;;;;;;;;;16.20;99.90;;;;;;5050258;28;20279;-77
2021/04/29 07:18:00;;;;;;;3.13;2.60;;;16.40;99.90;;;;;;5050746;28;19905;-77
2021/04/29 07:20:25;;;;;;;2.58;2.33;;;16.80;99.90;;;;;;5050919;28;20037;-77
2021/04/29 07:22:51;;;;;;;3.92;2.60;;;18.10;99.90;;;;;;5049622;28;20071;-76
2021/04/29 07:25:17;;;;;;;;;;;17.70;99.90;;;;;;5049349;28;20029;-77
2021/04/29 07:27:42;;;;;;;;;;;18.00;99.90;;;;;;5049773;28;19905;-77
2021/04/29 07:30:09;;;;;;;5.07;3.30;;;18.00;99.90;;;;;;5050030;28;19909;-78
2021/04/29 07:32:35;;;;;;;3.25;2.40;;;19.30;99.90;;;;;;5051353;28;20027;-78
2021/04/29 07:35:02;;;;;;;2.15;1.95;;;20.10;99.90;;;;;;5050102;28;20119;-77
2021/04/29 07:37:27;;;;;;;;;;;22.50;99.90;;;;;;5050652;28;20040;-78
2021/04/29 07:39:53;;;;;;;2.20;1.73;;;24.50;99.90;;;;;;5050204;28;19909;-78
2021/04/29 07:42:18;;;;;;;1.98;1.80;;;24.30;95.90;;;;;;5050399;28;20017;-78
2021/04/29 07:44:44;;;;;;;2.20;1.67;;;24.30;94.90;;;;;;5049743;28;20442;-78
2021/04/29 07:47:10;;;;;;;2.53;1.60;;;23.20;94.40;;;;;;5051919;28;20104;-78
2021/04/29 07:49:35;;;;;;;3.08;2.53;;;20.90;99.90;;;;;;5050887;28;20075;-78
2021/04/29 07:52:01;;;;;;;;;;;19.10;99.90;;;;;;5047817;28;20021;-77
2021/04/29 07:54:26;;;;;;;;;;;17.60;99.90;;;;;;5050358;28;19923;-77
2021/04/29 07:56:52;;;;;;;;;;;16.70;99.90;;;;;;5050588;28;19912;-77
2021/04/29 07:59:17;;;;;;;;;;;16.60;99.90;;;;;;5049971;28;19987;-77
2021/04/29 08:01:42;;;;;;;;;;;16.80;99.90;;;;;;5047731;28;20493;-77
2021/04/29 08:04:08;;;;;;;;;;;16.40;99.90;;;;;;5038432;28;19944;-77
2021/04/29 08:06:34;;;;;;;;;;;16.40;99.90;;;;;;5041499;28;19923;-77
2021/04/29 08:08:59;;;;;;;;;;;16.10;99.90;;;;;;5049548;28;19905;-77
2021/04/29 08:11:25;;;;;;;;;;;15.70;99.90;;;;;;5046700;28;20319;-77
2021/04/29 08:13:52;;;;;;;;;;;15.50;99.90;;;;;;5045988;28;19905;-77
2021/04/29 08:16:18;;;;;;;;;;;15.00;99.90;;;;;;5050439;28;19904;-78
2021/04/29 08:18:44;;;;;;;;;;;14.90;99.90;;;;;;5050977;28;20003;-77
2021/04/29 08:21:09;;;;;;;;;;;14.90;99.90;;;;;;5050827;28;19995;-77
2021/04/29 08:23:35;;;;;;;;;;;14.80;99.90;;;;;;5049098;28;19904;-77
2021/04/29 08:26:01;;;;;;;;;;;15.30;99.90;;;;;;5029615;28;20200;-77
2021/04/29 08:28:27;;;;;;;3.28;2.75;;;15.90;99.90;;;;;;5040394;28;19916;-77
2021/04/29 08:30:52;;;;;;;3.58;2.80;;;15.90;99.90;;;;;;5047242;28;20033;-76
2021/04/29 08:33:18;;;;;;;2.75;2.42;;;15.80;99.90;;;;;;5030856;28;20029;-76
2021/04/29 08:35:43;;;;;;;4.07;2.63;;;15.60;99.90;;;;;;5029724;28;20455;-76
2021/04/29 08:38:09;;;;;;;4.75;3.50;;;15.70;99.90;;;;;;5045322;28;20025;-76
2021/04/29 08:40:35;;;;;;;3.05;2.67;;;15.70;99.90;;;;;;5031871;28;20440;-80
2021/04/29 08:43:00;;;;;;;3.25;2.80;;;16.10;99.90;;;;;;5029534;28;20079;-76
2021/04/29 08:45:26;;;;;;;3.90;3.15;;;16.70;99.90;;;;;;5029961;28;20045;-77
2021/04/29 08:47:53;;;;;;;;;;;17.80;99.90;;;;;;5045628;28;20033;-78
2021/04/29 08:50:19;;;;;;;;;;;19.40;99.90;;;;;;5028915;28;20045;-78
2021/04/29 08:52:45;;;;;;;;;;;21.70;99.90;;;;;;5032466;28;19905;-78
2021/04/29 08:55:17;;;;;;;4.00;2.75;;;24.30;99.90;;;;;;5033264;28;19916;-78
2021/04/29 08:57:43;;;;;;;5.13;3.08;;;23.60;97.60;;;;;;5033519;28;20109;-76
2021/04/29 09:00:10;;;;;;;5.05;3.13;;;21.00;99.90;;;;;;5049662;28;20512;-77
2021/04/29 09:02:37;;;;;;;3.50;3.15;;;20.40;99.90;;;;;;5023966;28;20045;-78
2021/04/29 09:05:09;;;;;;;;;;;20.10;99.90;;;;;;5031527;28;20036;-81
2021/04/29 09:07:36;;;;;;;4.13;2.72;;;20.60;99.90;;;;;;5026146;28;19920;-77
2021/04/29 09:10:02;;;;;;;3.33;2.83;;;21.50;99.90;;;;;;5014435;28;20433;-77
2021/04/29 09:12:39;;;;;;;3.25;2.83;;;22.30;99.90;;;;;;5013887;28;20415;-77
2021/04/29 09:15:05;;;;;;;;;;;24.50;96.10;;;;;;5014768;28;20026;-77
2021/04/29 09:17:31;;;;;;;5.10;2.80;;;24.30;93.60;;;;;;5014471;28;20377;-77
2021/04/29 09:19:56;;;;;;;;;;;22.00;97.60;;;;;;5021135;28;20096;-77
2021/04/29 09:22:23;;;;;;;4.78;3.22;;;20.60;99.90;;;;;;5034523;28;19909;-77
2021/04/29 09:24:49;;;;;;;;;;;18.90;99.90;;;;;;5035062;28;20104;-78
2021/04/29 09:27:18;;;;;;;;;;;17.80;99.90;;;;;;5034983;28;20332;-78
2021/04/29 09:29:57;;;;;;;4.32;3.42;;;17.00;99.90;;;;;;5034024;28;19913;-78
2021/04/29 09:32:24;;;;;;;;;;;16.40;99.90;;;;;;5034942;28;20021;-79
2021/04/29 09:34:49;;;;;;;;;;;15.90;99.90;;;;;;5034092;28;20367;-78
2021/04/29 09:37:25;;;;;;;;;;;15.70;99.90;;;;;;5032908;28;19905;-78
2021/04/29 09:39:50;;;;;;;;;;;15.60;99.90;;;;;;5034296;28;19905;-79
2021/04/29 09:42:25;;;;;;;;;;;15.50;99.90;;;;;;5033096;28;19951;-79
2021/04/29 09:44:50;;;;;;;;;;;15.50;99.90;;;;;;5032684;28;20268;-79
2021/04/29 09:47:16;;;;;;;;;;;15.40;99.90;;;;;;5034096;28;19955;-79
2021/04/29 09:49:41;;;;;;;;;;;15.50;99.90;;;;;;5033208;28;20383;-78
2021/04/29 09:52:17;;;;;;;;;;;15.60;99.90;;;;;;5039329;28;19905;-80
2021/04/29 09:54:43;;;;;;;;;;;15.90;99.90;;;;;;5032662;28;19991;-78
2021/04/29 09:57:10;;;;;;;;;;;16.30;99.90;;;;;;5018657;28;19948;-78
2021/04/29 09:59:40;;;;;;;;;;;17.80;99.90;;;;;;5019789;28;19911;-80
2021/04/29 10:02:06;;;;;;;;;;;21.20;99.90;;;;;;5028371;28;20004;-78
2021/04/29 10:04:31;;;;;;;;;;;23.20;99.90;;;;;;5037588;28;20359;-78
2021/04/29 10:07:00;;;;;;;7.10;4.50;;;24.80;95.60;;;;;;5037966;28;19912;-80
2021/04/29 10:09:31;;;;;;;4.00;3.60;;;25.50;90.50;;;;;;5038740;28;20511;-78
2021/04/29 10:11:59;;;;;;;;;;;26.00;86.00;;;;;;5035194;28;20037;-80
2021/04/29 10:14:24;;;;;;;;;;;27.00;78.40;;;;;;5032649;28;19951;-81
2021/04/29 10:16:50;;;;;;;3.73;3.13;;;27.50;74.60;;;;;;5033288;28;19905;-80
2021/04/29 10:19:16;;;;;;;;;;;27.70;67.50;;;;;;5033607;28;20446;-80
2021/04/29 10:21:41;;;;;;;;;;;24.90;71.20;;;;;;5034956;28;19906;-82
2021/04/29 10:24:08;;;;;;;;;;;23.70;81.70;;;;;;5035528;28;19905;-84
2021/04/29 10:26:34;;;;;;;;;;;24.40;75.70;;;;;;5033475;28;19909;-80
2021/04/29 10:29:02;;;;;;;4.00;3.50;;;24.20;81.80;;;;;;5033440;28;19955;-80
2021/04/29 10:31:30;;;;;;;3.65;3.00;;;24.40;82.80;;;;;;5032728;28;20076;-80
2021/04/29 10:33:57;;;;;;;;;;;24.80;89.00;;;;;;5033090;28;19916;-79
2021/04/29 10:36:43;;;;;;;6.38;3.83;;;25.30;82.40;;;;;;5032918;28;19905;-80
2021/04/29 10:39:16;;;;;;;5.40;4.03;;;24.10;78.10;;;;;;5034561;28;20590;-79
2021/04/29 10:41:45;;;;;;;4.75;3.05;;;23.40;85.70;;;;;;5033747;28;20124;-80
2021/04/29 10:44:11;;;;;;;;;;;23.00;81.60;;;;;;5034514;28;20373;-80
2021/04/29 10:46:39;;;;;;;4.90;3.55;;;22.60;89.70;;;;;;5034235;28;20008;-79
2021/04/29 10:49:06;;;;;;;4.20;3.22;;;24.10;86.10;;;;;;5050242;28;20029;-80
2021/04/29 10:51:35;;;;;;;;;;;23.90;85.40;;;;;;5051667;28;20048;-79
2021/04/29 10:54:19;;;;;;;;;;;22.50;89.00;;;;;;5035516;28;19909;-79
2021/04/29 10:57:06;;;;;;;4.85;3.40;;;23.10;89.00;;;;;;5041097;28;20368;-80
2021/04/29 10:59:42;;;;;;;;;;;24.50;84.00;;;;;;5045704;28;20044;-80
2021/04/29 11:02:20;;;;;;;;;;;24.90;79.60;;;;;;5038883;28;19909;-80
2021/04/29 11:04:45;;;;;;;;;;;23.50;85.10;;;;;;5043076;28;19905;-79
2021/04/29 11:07:12;;;;;;;;;;;21.40;93.00;;;;;;5042009;28;20379;-79
2021/04/29 11:09:38;;;;;;;;;;;19.60;99.90;;;;;;5044889;28;20386;-78
2021/04/29 11:12:08;;;;;;;;;;;18.60;99.90;;;;;;5037900;28;19955;-79
2021/04/29 11:14:40;;;;;;;;;;;18.30;99.90;;;;;;5040521;28;19990;-79
2021/04/29 11:17:06;;;;;;;;;;;19.00;99.90;;;;;;5039710;28;20382;-78
2021/04/29 11:19:47;;;;;;;;;;;18.50;99.90;;;;;;5044299;28;19905;-79
2021/04/29 11:22:14;;;;;;;;;;;17.80;99.90;;;;;;5047689;28;19951;-77
2021/04/29 11:24:45;;;;;;;;;;;17.30;99.90;;;;;;5051017;28;20356;-78
2021/04/29 11:27:30;;;;;;;;;;;18.10;99.90;;;;;;5051706;28;20428;-79
2021/04/29 11:30:01;;;;;;;;;;;20.00;99.90;;;;;;5051573;28;19908;-78
2021/04/29 11:32:27;;;;;;;;;;;20.70;99.90;;;;;;5047732;28;19916;-78
2021/04/29 11:34:54;;;;;;;;;;;19.80;99.90;;;;;;5052628;28;19904;-77
2021/04/29 11:37:20;;;;;;;;;;;19.70;99.90;;;;;;5050921;28;19927;-77
2021/04/29 11:39:59;;;;;;;;;;;19.70;99.90;;;;;;5052635;28;20362;-78
2021/04/29 11:42:29;;;;;;;;;;;19.50;99.90;;;;;;5051682;28;19910;-78
2021/04/29 11:45:04;;;;;;;;;;;18.80;99.90;;;;;;5052364;28;20393;-78
2021/04/29 11:47:30;;;;;;;;;;;18.40;99.90;;;;;;5051000;28;19955;-78
2021/04/29 11:49:55;;;;;;;;;;;18.00;99.90;;;;;;5047648;28;19917;-77
2021/04/29 11:52:21;;;;;;;;;;;18.30;99.90;;;;;;5040059;28;20030;-78
2021/04/29 11:54:47;;;;;;;;;;;18.30;99.90;;;;;;5034625;28;19905;-77
2021/04/29 11:57:14;;;;;;;;;;;17.90;99.90;;;;;;5030603;28;19936;-77
2021/04/29 11:59:39;;;;;;;;;;;17.80;99.90;;;;;;5030709;28;19912;-77
2021/04/29 12:02:05;;;;;;;;;;;17.80;99.90;;;;;;5030700;28;19905;-78
2021/04/29 12:04:30;;;;;;;;;;;17.70;99.90;;;;;;5031732;28;20333;-78
2021/04/29 12:06:57;;;;;;;;;;;17.60;99.90;;;;;;5030421;28;19996;-77
2021/04/29 12:09:24;;;;;;;;;;;17.40;99.90;;;;;;5022363;28;20352;-76
2021/04/29 12:11:49;;;;;;;;;;;17.40;99.90;;;;;;5020033;28;19905;-78
2021/04/29 12:14:22;;;;;;;;;;;17.50;99.90;;;;;;5029250;28;19912;-78
2021/04/29 12:16:48;;;;;;;;;;;17.40;99.90;;;;;;5029967;28;19905;-77
2021/04/29 12:19:14;;;;;;;;;;;16.80;99.90;;;;;;5029668;28;19913;-77
2021/04/29 12:21:42;;;;;;;;;;;16.80;99.90;;;;;;5030708;28;20435;-78
2021/04/29 12:24:09;;;;;;;;;;;16.60;99.90;;;;;;5031839;28;20224;-77
2021/04/29 12:26:39;;;;;;;;;;;16.50;99.90;;;;;;5033361;28;20275;-77
2021/04/29 12:29:09;;;;;;;;;;;16.60;99.90;;;;;;5036354;28;20425;-78
2021/04/29 12:31:35;;;;;;;;;;;17.10;99.90;;;;;;5035508;28;19909;-78
2021/04/29 12:34:04;;;;;;;;;;;17.90;99.90;;;;;;5034548;28;19905;-77
2021/04/29 12:36:47;;;;;;;;;;;18.50;99.90;;;;;;5034550;28;19913;-78
2021/04/29 12:39:13;;;;;;;;;;;18.90;99.90;;;;;;5034765;28;20438;-78
2021/04/29 12:41:39;;;;;;;;;;;18.70;99.90;;;;;;5034242;28;19905;-77
2021/04/29 12:44:04;;;;;;;;;;;18.20;99.90;;;;;;5035174;28;19956;-77
2021/04/29 12:46:37;;;;;;;;;;;17.80;99.90;;;;;;5034081;28;19937;-77
2021/04/29 12:49:06;;;;;;;;;;;16.90;99.90;;;;;;5034054;28;19959;-77
2021/04/29 12:51:32;;;;;;;;;;;16.50;99.90;;;;;;5033782;28;20037;-77
2021/04/29 12:53:59;;;;;;;;;;;16.40;99.90;;;;;;5034935;28;19940;-77
2021/04/29 12:56:25;;;;;;;;;;;16.60;99.90;;;;;;5034842;28;20007;-77
2021/04/29 12:58:50;;;;;;;;;;;16.80;99.90;;;;;;5033635;28;20061;-77
2021/04/29 13:01:20;;;;;;;;;;;17.50;99.90;;;;;;5033868;28;19905;-77
2021/04/29 13:03:46;;;;;;;;;;;18.50;99.90;;;;;;5034912;28;19928;-77
2021/04/29 13:06:12;;;;;;;;;;;18.90;98.90;;;;;;5033622;28;19905;-77
2021/04/29 13:08:55;;;;;;;;;;;19.00;94.20;;;;;;5033957;28;19912;-77
2021/04/29 13:11:50;;;;;;;;;;;18.70;95.70;;;;;;5033585;28;20379;-77
2021/04/29 13:14:28;;;;;;;;;;;18.20;95.60;;;;;;5030025;28;19905;-78
2021/04/29 13:16:54;;;;;;;;;;;17.70;97.80;;;;;;5033744;28;19909;-78
2021/04/29 13:19:20;;;;;;;;;;;17.70;99.90;;;;;;5034780;28;19912;-78
2021/04/29 13:21:45;;;;;;;;;;;17.50;99.00;;;;;;5033430;28;19970;-78
2021/04/29 13:24:15;;;;;;;;;;;17.80;98.20;;;;;;5032978;28;19905;-77
2021/04/29 13:26:42;;;;;;;;;;;17.60;97.60;;;;;;5033315;28;19909;-78
2021/04/29 13:29:07;;;;;;;;;;;17.80;97.00;;;;;;5033235;28;19912;-78
2021/04/29 13:31:33;;;;;;;;;;;17.70;99.60;;;;;;5033461;28;19905;-77
2021/04/29 13:34:02;;;;;;;;;;;17.70;97.80;;;;;;5034507;28;19905;-77
2021/04/29 13:36:28;;;;;;;;;;;17.70;96.50;;;;;;5032919;28;19912;-78
2021/04/29 13:38:53;;;;;;;;;;;18.10;99.50;;;;;;5032276;28;19909;-78
2021/04/29 13:41:19;;;;;;;;;;;18.50;96.20;;;;;;5034369;28;19909;-77
2021/04/29 13:43:44;;;;;;;;;;;18.80;97.80;;;;;;5052432;28;19905;-77
2021/04/29 13:46:10;;;;;;;;;;;18.80;94.90;;;;;;5040896;28;19944;-77
2021/04/29 13:48:36;;;;;;;;;;;19.00;95.00;;;;;;5033870;28;19909;-77
2021/04/29 13:51:02;;;;;;;;;;;19.00;93.80;;;;;;5034101;28;19913;-77
2021/04/29 13:53:28;;;;;;;;;;;18.90;95.60;;;;;;5032454;28;19988;-78
2021/04/29 13:55:54;;;;;;;;;;;18.90;94.60;;;;;;5032442;28;19911;-78
2021/04/29 13:58:21;;;;;;;;;;;18.70;96.70;;;;;;5034001;28;20424;-78
2021/04/29 14:00:46;;;;;;;;;;;18.30;93.90;;;;;;5034596;28;19905;-77
2021/04/29 14:03:11;;;;;;;;;;;18.00;94.30;;;;;;5033707;28;19905;-78
2021/04/29 14:05:37;;;;;;;;;;;17.80;93.80;;;;;;5038006;28;19912;-78
2021/04/29 14:08:03;;;;;;;;;;;18.10;91.80;;;;;;5034912;28;19913;-77
2021/04/29 14:10:29;;;;;;;;;;;18.40;92.90;;;;;;5032784;28;20296;-78
2021/04/29 14:12:55;;;;;;;;;;;18.40;94.20;;;;;;5039339;28;19932;-78
2021/04/29 14:15:21;;;;;;;;;;;18.50;94.50;;;;;;5038171;28;20368;-77
2021/04/29 14:17:46;;;;;;;;;;;18.70;93.70;;;;;;5045143;28;19904;-77
2021/04/29 14:20:12;;;;;;;;;;;18.70;93.20;;;;;;5052178;28;19911;-77
2021/04/29 14:22:37;;;;;;;;;;;18.30;92.50;;;;;;5051956;28;19958;-77
2021/04/29 14:25:04;;;;;;;;;;;18.40;94.00;;;;;;5051839;28;19912;-76